Time;durP1;ratioP1;P1;durP2;ratioP2;P2;SDS_P1;SDS_P2;PMS_P1;PMS_P2;Temp;Humidity;BMP_temperature;BMP_pressure;BME280_temperature;BME280_humidity;BME280_pressure;Samples;Min_cycle;Max_cycle;Signal;HPM_P1;HPM_P2
2022/07/30 00:01:04;;;;;;;2.00;1.80;;;15.70;99.90;;;;;;6061570;23;20026;-85
2022/07/30 00:03:35;;;;;;;5.00;3.13;;;15.80;99.90;;;;;;6063311;23;20029;-81
2022/07/30 00:06:07;;;;;;;4.93;2.35;;;15.70;99.90;;;;;;6120641;23;20037;-81
2022/07/30 00:08:42;;;;;;;3.20;1.58;;;15.70;99.90;;;;;;6087695;23;20026;-82
2022/07/30 00:11:10;;;;;;;1.98;1.63;;;15.80;99.90;;;;;;6063838;23;20477;-82
2022/07/30 00:13:38;;;;;;;2.90;2.03;;;15.80;99.90;;;;;;6124308;23;20338;-81
2022/07/30 00:16:06;;;;;;;2.97;2.78;;;15.80;99.90;;;;;;6090750;23;20045;-81
2022/07/30 00:18:34;;;;;;;1.77;1.67;;;15.80;99.90;;;;;;6095944;23;20014;-81
2022/07/30 00:21:02;;;;;;;10.20;2.42;;;15.80;99.90;;;;;;6097505;23;20021;-82
2022/07/30 00:23:31;;;;;;;1.85;1.75;;;15.80;99.90;;;;;;6086003;23;20022;-82
2022/07/30 00:25:58;;;;;;;1.45;1.35;;;15.90;99.90;;;;;;6123232;23;20849;-82
2022/07/30 00:28:26;;;;;;;1.67;1.58;;;15.80;99.90;;;;;;6113853;23;20493;-82
2022/07/30 00:30:55;;;;;;;2.55;1.98;;;15.90;99.90;;;;;;6094592;23;20378;-82
2022/07/30 00:33:22;;;;;;;1.70;1.60;;;15.90;99.90;;;;;;6124124;23;20025;-81
2022/07/30 00:35:50;;;;;;;1.92;1.80;;;15.90;99.90;;;;;;6118935;23;20030;-81
2022/07/30 00:38:18;;;;;;;6.28;1.40;;;15.90;99.90;;;;;;6097203;23;20029;-81
2022/07/30 00:40:46;;;;;;;3.25;1.38;;;15.90;99.90;;;;;;6115142;23;20022;-81
2022/07/30 00:43:15;;;;;;;1.50;1.40;;;15.80;99.90;;;;;;6072044;23;20029;-81
2022/07/30 00:45:43;;;;;;;2.10;2.00;;;15.80;99.90;;;;;;6125604;23;20319;-81
2022/07/30 00:48:13;;;;;;;1.77;1.67;;;15.70;99.90;;;;;;6116744;23;20029;-81
2022/07/30 00:50:41;;;;;;;2.00;1.80;;;15.80;99.90;;;;;;6123769;23;20018;-81
2022/07/30 00:53:11;;;;;;;2.42;2.22;;;15.80;99.90;;;;;;6124208;23;20014;-80
2022/07/30 00:55:39;;;;;;;12.18;2.67;;;15.80;99.90;;;;;;6114751;23;20431;-80
2022/07/30 00:58:07;;;;;;;2.10;1.88;;;15.70;99.90;;;;;;6124899;23;20337;-80
2022/07/30 01:00:35;;;;;;;2.10;1.83;;;15.70;99.90;;;;;;6115736;23;20499;-80
2022/07/30 01:03:03;;;;;;;1.90;1.80;;;15.60;99.90;;;;;;6088874;23;20533;-81
2022/07/30 01:05:31;;;;;;;7.93;2.42;;;15.60;99.90;;;;;;6099516;23;20017;-80
2022/07/30 01:07:59;;;;;;;4.50;2.50;;;15.70;99.90;;;;;;6113742;23;20026;-81
2022/07/30 01:10:27;;;;;;;2.65;2.13;;;15.60;99.90;;;;;;6124417;23;20018;-81
2022/07/30 01:12:58;;;;;;;2.30;2.13;;;15.60;99.90;;;;;;6099245;23;20335;-80
2022/07/30 01:15:25;;;;;;;4.05;3.10;;;15.60;99.90;;;;;;6094479;23;20229;-81
2022/07/30 01:17:57;;;;;;;2.83;2.35;;;15.60;99.90;;;;;;6099099;23;20014;-80
2022/07/30 01:20:33;;;;;;;5.88;2.95;;;15.60;99.90;;;;;;6091451;23;20033;-79
2022/07/30 01:23:12;;;;;;;2.45;2.03;;;15.60;99.90;;;;;;6070788;23;20033;-79
2022/07/30 01:26:13;;;;;;;2.42;2.22;;;15.60;99.90;;;;;;6098639;23;20018;-80
2022/07/30 01:28:42;;;;;;;;;;;15.60;99.90;;;;;;6064498;23;20030;-80
2022/07/30 01:31:11;;;;;;;3.28;2.50;;;15.60;99.90;;;;;;6121417;23;19928;-80
2022/07/30 01:33:46;;;;;;;2.70;2.55;;;15.60;99.90;;;;;;6098939;23;20025;-81
2022/07/30 01:36:16;;;;;;;2.22;2.03;;;15.60;99.90;;;;;;6090944;23;20030;-79
2022/07/30 01:38:45;;;;;;;2.10;1.90;;;15.60;99.90;;;;;;6095579;23;20030;-79
2022/07/30 01:41:14;;;;;;;2.33;2.13;;;15.60;99.90;;;;;;6074974;23;20022;-80
2022/07/30 01:43:45;;;;;;;3.70;1.77;;;15.50;99.90;;;;;;6064830;23;20032;-79
2022/07/30 01:46:15;;;;;;;1.88;1.77;;;15.50;99.90;;;;;;6098245;23;20342;-79
2022/07/30 01:48:46;;;;;;;4.47;1.90;;;15.60;99.90;;;;;;6088111;23;20088;-80
2022/07/30 01:51:17;;;;;;;3.33;2.47;;;15.60;99.90;;;;;;6095196;23;20022;-80
2022/07/30 01:53:49;;;;;;;5.25;2.80;;;15.60;99.90;;;;;;6098872;23;20018;-80
2022/07/30 01:56:20;;;;;;;2.05;1.83;;;15.60;99.90;;;;;;6087668;23;20608;-81
2022/07/30 01:58:54;;;;;;;4.05;2.50;;;15.60;99.90;;;;;;6094443;23;20026;-79
2022/07/30 02:01:27;;;;;;;7.05;2.47;;;15.60;99.90;;;;;;6098369;23;20018;-80
2022/07/30 02:04:01;;;;;;;3.40;2.35;;;15.60;99.90;;;;;;6092788;23;20030;-80
2022/07/30 02:07:03;;;;;;;6.95;1.92;;;15.60;99.90;;;;;;6062610;23;20026;-80
2022/07/30 02:09:40;;;;;;;2.28;2.10;;;15.60;99.90;;;;;;6084576;23;20018;-79
2022/07/30 02:12:27;;;;;;;2.55;2.15;;;15.60;99.90;;;;;;6064316;23;20033;-79
2022/07/30 02:15:13;;;;;;;3.22;2.30;;;15.60;99.90;;;;;;6088865;23;20022;-80
2022/07/30 02:17:53;;;;;;;2.50;2.30;;;15.60;99.90;;;;;;6098131;23;20480;-80
2022/07/30 02:20:25;;;;;;;3.53;2.28;;;15.60;99.90;;;;;;6089667;23;20507;-80
2022/07/30 02:23:02;;;;;;;2.10;2.00;;;15.70;99.90;;;;;;6094003;23;20026;-80
2022/07/30 02:25:34;;;;;;;2.55;2.35;;;15.70;99.90;;;;;;6098657;23;20445;-80
2022/07/30 02:28:06;;;;;;;5.18;3.60;;;15.70;99.90;;;;;;6089859;23;20030;-80
2022/07/30 02:30:39;;;;;;;2.95;2.75;;;15.70;99.90;;;;;;6121554;23;20018;-80
2022/07/30 02:33:11;;;;;;;5.88;4.00;;;15.70;99.90;;;;;;6063985;23;20018;-81
2022/07/30 02:35:40;;;;;;;2.05;1.95;;;15.60;99.90;;;;;;6092233;23;20032;-80
2022/07/30 02:38:11;;;;;;;2.25;2.05;;;15.60;99.90;;;;;;6096066;23;20014;-80
2022/07/30 02:40:43;;;;;;;3.65;2.30;;;15.60;99.90;;;;;;6114364;23;20034;-80
2022/07/30 02:43:15;;;;;;;3.85;2.83;;;15.70;99.90;;;;;;6120566;23;20022;-80
2022/07/30 02:45:47;;;;;;;12.25;5.10;;;15.60;99.90;;;;;;6124439;23;20018;-80
2022/07/30 02:48:20;;;;;;;4.57;2.22;;;15.70;99.90;;;;;;6089281;23;20424;-79
2022/07/30 02:51:03;;;;;;;3.17;1.85;;;15.70;99.90;;;;;;6094284;23;20029;-80
2022/07/30 02:53:33;;;;;;;2.92;2.13;;;15.70;99.90;;;;;;6096712;23;20018;-80
2022/07/30 02:56:02;;;;;;;3.50;1.77;;;15.70;99.90;;;;;;6090403;23;20025;-79
2022/07/30 02:58:34;;;;;;;2.73;2.53;;;15.70;99.90;;;;;;6096454;23;20024;-80
2022/07/30 03:01:03;;;;;;;2.55;2.35;;;15.70;99.90;;;;;;6074485;23;20446;-80
2022/07/30 03:03:31;;;;;;;2.72;2.47;;;15.60;99.90;;;;;;6092081;23;20018;-81
2022/07/30 03:06:01;;;;;;;3.08;2.15;;;15.60;99.90;;;;;;6123341;23;20014;-81
2022/07/30 03:08:31;;;;;;;3.13;2.38;;;15.50;99.90;;;;;;6085965;23;20030;-82
2022/07/30 03:11:00;;;;;;;2.58;2.38;;;15.60;99.90;;;;;;6121372;23;20022;-80
2022/07/30 03:13:28;;;;;;;2.78;2.58;;;15.60;99.90;;;;;;6097129;23;20018;-80
2022/07/30 03:15:57;;;;;;;2.88;2.67;;;15.50;99.90;;;;;;6090629;23;20034;-79
2022/07/30 03:18:31;;;;;;;2.63;2.42;;;15.50;99.90;;;;;;6096526;23;20867;-79
2022/07/30 03:21:00;;;;;;;2.10;1.90;;;15.40;99.90;;;;;;6124160;23;20025;-79
2022/07/30 03:23:30;;;;;;;3.85;2.20;;;15.40;99.90;;;;;;6117114;23;20539;-80
2022/07/30 03:26:00;;;;;;;3.42;2.42;;;15.40;99.90;;;;;;6074037;23;20080;-79
2022/07/30 03:28:31;;;;;;;2.65;2.20;;;15.40;99.90;;;;;;6062350;23;20026;-79
2022/07/30 03:31:00;;;;;;;2.88;2.58;;;15.40;99.90;;;;;;6094803;23;20033;-80
2022/07/30 03:33:30;;;;;;;2.33;2.15;;;15.40;99.90;;;;;;6097207;23;20018;-79
2022/07/30 03:36:07;;;;;;;4.93;3.40;;;15.40;99.90;;;;;;6116423;23;20030;-80
2022/07/30 03:38:37;;;;;;;3.97;3.35;;;15.40;99.90;;;;;;6120315;23;20022;-79
2022/07/30 03:41:06;;;;;;;4.78;3.90;;;15.40;99.90;;;;;;6097162;23;20021;-80
2022/07/30 03:43:34;;;;;;;4.43;2.78;;;15.40;99.90;;;;;;6092826;23;20567;-79
2022/07/30 03:46:06;;;;;;;6.63;3.30;;;15.40;99.90;;;;;;6097686;23;20025;-80
2022/07/30 03:48:39;;;;;;;2.88;2.63;;;15.40;99.90;;;;;;6087033;23;20025;-79
2022/07/30 03:51:09;;;;;;;3.40;2.63;;;15.40;99.90;;;;;;6094138;23;20217;-80
2022/07/30 03:53:40;;;;;;;3.00;2.70;;;15.40;99.90;;;;;;6091644;23;20318;-80
2022/07/30 03:56:27;;;;;;;2.97;2.55;;;15.40;99.90;;;;;;6087010;23;20037;-80
2022/07/30 03:59:05;;;;;;;2.55;2.35;;;15.40;99.90;;;;;;6094052;23;20033;-80
2022/07/30 04:01:34;;;;;;;5.07;2.87;;;15.50;99.90;;;;;;6087291;23;20014;-82
2022/07/30 04:04:10;;;;;;;2.92;2.60;;;15.50;99.90;;;;;;6090160;23;20114;-80
2022/07/30 04:06:41;;;;;;;2.75;2.55;;;15.40;99.90;;;;;;6085238;23;20041;-80
2022/07/30 04:09:12;;;;;;;3.55;2.03;;;15.40;99.90;;;;;;6089182;23;20022;-81
2022/07/30 04:11:40;;;;;;;4.03;2.05;;;15.50;99.90;;;;;;6094124;23;20030;-80
2022/07/30 04:14:16;;;;;;;3.97;2.45;;;15.50;99.90;;;;;;6099764;23;20018;-80
2022/07/30 04:17:03;;;;;;;2.65;2.08;;;15.50;99.90;;;;;;6041389;23;20025;-80
2022/07/30 04:19:40;;;;;;;2.17;2.05;;;15.50;99.90;;;;;;6093963;23;20018;-80
2022/07/30 04:22:11;;;;;;;2.55;2.35;;;15.40;99.90;;;;;;6064125;23;20029;-81
2022/07/30 04:24:43;;;;;;;4.43;2.00;;;15.50;99.90;;;;;;6116043;23;20029;-81
2022/07/30 04:27:14;;;;;;;4.70;2.13;;;15.40;99.90;;;;;;6095548;23;20041;-81
2022/07/30 04:29:42;;;;;;;2.28;2.08;;;15.40;99.90;;;;;;6124908;23;20480;-80
2022/07/30 04:32:11;;;;;;;3.25;2.13;;;15.40;99.90;;;;;;6091014;23;20088;-80
2022/07/30 04:34:54;;;;;;;2.83;2.65;;;15.40;99.90;;;;;;6124232;23;20025;-79
2022/07/30 04:37:42;;;;;;;5.00;3.15;;;15.30;99.90;;;;;;6112968;23;20022;-81
2022/07/30 04:40:10;;;;;;;6.10;3.10;;;15.30;99.90;;;;;;6091313;23;20439;-81
2022/07/30 04:42:38;;;;;;;3.25;2.20;;;15.40;99.90;;;;;;6097845;23;20014;-80
2022/07/30 04:45:10;;;;;;;3.00;2.55;;;15.40;99.90;;;;;;6099589;23;20440;-80
2022/07/30 04:48:09;;;;;;;2.50;2.30;;;15.40;99.90;;;;;;6114478;23;20032;-80
2022/07/30 04:50:59;;;;;;;2.90;2.70;;;15.40;99.90;;;;;;6100971;23;20532;-80
2022/07/30 04:53:29;;;;;;;2.97;2.72;;;15.40;99.90;;;;;;6097425;23;20014;-80
2022/07/30 04:56:01;;;;;;;12.63;3.35;;;15.40;99.90;;;;;;6091682;23;20029;-80
2022/07/30 04:58:32;;;;;;;2.80;2.60;;;15.40;99.90;;;;;;6096999;23;20358;-80
2022/07/30 05:01:01;;;;;;;2.33;2.13;;;15.40;99.90;;;;;;6125497;23;20018;-80
2022/07/30 05:03:33;;;;;;;2.67;2.42;;;15.40;99.90;;;;;;6093892;23;20032;-79
2022/07/30 05:06:01;;;;;;;3.25;2.95;;;15.50;99.90;;;;;;6097692;23;20025;-79
2022/07/30 05:08:34;;;;;;;10.10;2.90;;;15.50;99.90;;;;;;6087134;23;20030;-80
2022/07/30 05:11:05;;;;;;;6.82;2.70;;;15.60;99.90;;;;;;6064474;23;20362;-80
2022/07/30 05:13:33;;;;;;;2.70;2.50;;;15.60;99.90;;;;;;6098936;23;20468;-79
2022/07/30 05:16:08;;;;;;;3.33;3.03;;;15.60;99.90;;;;;;6091059;23;20397;-80
2022/07/30 05:18:37;;;;;;;3.30;3.00;;;15.70;99.90;;;;;;6096652;23;20036;-80
2022/07/30 05:21:05;;;;;;;3.65;3.30;;;15.70;99.90;;;;;;6098660;23;20025;-79
2022/07/30 05:23:41;;;;;;;2.97;2.78;;;15.70;99.90;;;;;;6087414;23;20037;-79
2022/07/30 05:26:38;;;;;;;3.58;2.88;;;15.80;99.90;;;;;;6096277;23;20028;-81
2022/07/30 05:29:07;;;;;;;4.05;2.85;;;15.90;99.90;;;;;;6075171;23;20025;-79
2022/07/30 05:31:58;;;;;;;3.67;3.38;;;16.00;99.90;;;;;;6114409;23;20508;-79
2022/07/30 05:34:32;;;;;;;4.68;3.28;;;16.10;99.90;;;;;;6124159;23;20021;-79
2022/07/30 05:37:00;;;;;;;3.15;2.75;;;16.10;99.90;;;;;;6096428;23;20103;-80
2022/07/30 05:39:28;;;;;;;3.90;2.70;;;16.30;99.90;;;;;;6093404;23;20394;-79
2022/07/30 05:42:14;;;;;;;5.47;3.00;;;16.40;99.90;;;;;;6124742;23;20041;-79
2022/07/30 05:44:47;;;;;;;3.83;2.95;;;16.40;99.90;;;;;;6088230;23;20029;-80
2022/07/30 05:47:16;;;;;;;6.03;3.13;;;16.50;99.90;;;;;;6094338;23;20029;-79
2022/07/30 05:49:44;;;;;;;5.47;2.88;;;16.60;99.90;;;;;;6098301;23;20025;-78
2022/07/30 05:52:14;;;;;;;4.40;4.00;;;16.60;99.90;;;;;;6089406;23;20029;-78
2022/07/30 05:54:43;;;;;;;3.10;2.88;;;16.70;99.90;;;;;;6088555;23;20025;-82
2022/07/30 05:57:45;;;;;;;3.45;3.15;;;16.70;99.90;;;;;;6115009;23;20042;-79
2022/07/30 06:00:14;;;;;;;3.38;3.13;;;16.80;99.90;;;;;;6089483;23;20025;-83
2022/07/30 06:02:50;;;;;;;3.72;3.13;;;16.90;99.90;;;;;;6095517;23;20350;-82
2022/07/30 06:05:27;;;;;;;11.38;3.17;;;17.00;99.90;;;;;;6124277;23;20319;-80
2022/07/30 06:07:59;;;;;;;3.70;3.40;;;17.20;99.90;;;;;;6086073;23;20033;-79
2022/07/30 06:10:29;;;;;;;3.20;2.83;;;17.20;99.90;;;;;;6097075;23;20014;-78
2022/07/30 06:12:58;;;;;;;4.72;3.47;;;17.30;99.90;;;;;;6096637;23;20056;-79
2022/07/30 06:15:26;;;;;;;4.38;2.92;;;17.20;99.90;;;;;;6092093;23;20026;-78
2022/07/30 06:17:54;;;;;;;3.83;3.53;;;17.10;99.90;;;;;;6063542;23;20450;-81
2022/07/30 06:21:01;;;;;;;5.97;3.35;;;17.10;99.90;;;;;;6068023;23;20029;-79
2022/07/30 06:23:44;;;;;;;8.27;3.35;;;17.10;99.90;;;;;;6090234;23;20061;-82
2022/07/30 06:26:16;;;;;;;3.55;3.20;;;17.10;99.90;;;;;;6097231;23;20509;-82
2022/07/30 06:28:45;;;;;;;3.17;2.97;;;17.20;99.90;;;;;;6087358;23;20022;-80
2022/07/30 06:31:20;;;;;;;7.63;3.55;;;17.20;99.90;;;;;;6093835;23;20034;-81
2022/07/30 06:33:48;;;;;;;3.80;3.50;;;17.10;99.90;;;;;;6124190;23;20017;-80
2022/07/30 06:36:20;;;;;;;8.38;3.80;;;17.10;99.90;;;;;;6086452;23;20478;-81
2022/07/30 06:39:00;;;;;;;4.75;3.50;;;17.00;99.90;;;;;;6094503;23;20026;-78
2022/07/30 06:41:54;;;;;;;3.95;3.65;;;17.00;99.90;;;;;;6114189;23;20029;-79
2022/07/30 06:44:26;;;;;;;9.50;3.17;;;17.00;99.90;;;;;;6089441;23;20477;-80
2022/07/30 06:47:12;;;;;;;4.68;4.25;;;17.00;99.90;;;;;;6119355;23;20350;-80
2022/07/30 06:49:41;;;;;;;5.32;4.00;;;17.00;99.90;;;;;;6098463;23;20018;-79
2022/07/30 06:52:09;;;;;;;3.17;2.90;;;17.00;99.90;;;;;;6089362;23;20458;-79
2022/07/30 06:54:47;;;;;;;4.45;4.00;;;17.00;99.90;;;;;;6096090;23;20055;-79
2022/07/30 06:57:37;;;;;;;;;;;17.00;99.90;;;;;;6107447;23;20025;-80
2022/07/30 07:00:28;;;;;;;3.53;3.22;;;17.00;99.90;;;;;;6088833;23;19920;-79
2022/07/30 07:02:56;;;;;;;4.65;3.35;;;17.00;99.90;;;;;;6087384;23;20022;-80
2022/07/30 07:05:34;;;;;;;3.95;3.55;;;17.00;99.90;;;;;;6095453;23;20014;-79
2022/07/30 07:08:02;;;;;;;4.13;3.83;;;17.00;99.90;;;;;;6083645;23;20030;-78
2022/07/30 07:10:35;;;;;;;3.53;3.22;;;17.10;99.90;;;;;;6097061;23;20349;-79
2022/07/30 07:13:29;;;;;;;6.22;4.53;;;17.10;99.90;;;;;;6114146;23;20461;-79
2022/07/30 07:15:58;;;;;;;7.22;4.78;;;17.30;99.90;;;;;;6090999;23;20486;-78
2022/07/30 07:18:28;;;;;;;6.73;5.10;;;17.50;99.90;;;;;;6095989;23;20018;-79
2022/07/30 07:21:00;;;;;;;5.50;4.93;;;17.70;99.90;;;;;;6094952;23;20021;-78
2022/07/30 07:23:28;;;;;;;5.88;4.05;;;18.00;99.90;;;;;;6091207;23;20033;-78
2022/07/30 07:26:23;;;;;;;6.45;4.30;;;17.90;99.90;;;;;;6096678;23;20017;-79
2022/07/30 07:28:51;;;;;;;8.15;5.38;;;17.80;99.90;;;;;;6086436;23;20470;-81
2022/07/30 07:31:19;;;;;;;5.22;4.82;;;17.60;99.90;;;;;;6093590;23;20033;-79
2022/07/30 07:34:07;;;;;;;5.07;4.68;;;17.50;99.90;;;;;;6123762;23;20022;-80
2022/07/30 07:36:35;;;;;;;9.20;5.13;;;17.40;99.90;;;;;;6086271;23;20033;-80
2022/07/30 07:39:08;;;;;;;5.80;5.30;;;17.30;99.90;;;;;;6092656;23;20026;-81
2022/07/30 07:41:41;;;;;;;9.70;5.00;;;17.30;99.90;;;;;;6096950;23;20018;-79
2022/07/30 07:44:17;;;;;;;5.00;4.63;;;17.30;99.90;;;;;;6089655;23;20032;-79
2022/07/30 07:46:45;;;;;;;4.93;4.22;;;17.40;99.90;;;;;;6094971;23;20206;-84
2022/07/30 07:49:13;;;;;;;4.47;4.07;;;17.50;99.90;;;;;;6123083;23;20350;-80
2022/07/30 07:51:50;;;;;;;4.65;4.35;;;17.60;99.90;;;;;;6061782;23;20429;-79
2022/07/30 07:54:19;;;;;;;6.03;4.88;;;17.80;99.90;;;;;;6094905;23;20018;-79
2022/07/30 07:56:51;;;;;;;9.25;4.60;;;18.00;99.90;;;;;;6088261;23;20058;-80
2022/07/30 07:59:31;;;;;;;7.32;4.82;;;18.20;99.90;;;;;;6098033;23;20346;-80
2022/07/30 08:02:09;;;;;;;9.13;5.43;;;18.30;99.90;;;;;;6103353;23;20442;-84
2022/07/30 08:05:04;;;;;;;4.35;3.95;;;18.40;99.90;;;;;;6100927;23;20033;-86
2022/07/30 08:07:35;;;;;;;9.48;5.65;;;18.40;99.90;;;;;;6118938;23;20045;-81
2022/07/30 08:10:06;;;;;;;5.60;5.20;;;18.50;99.90;;;;;;6129539;23;20014;-80
2022/07/30 08:12:56;;;;;;;5.22;4.72;;;18.60;99.90;;;;;;6078610;23;20022;-77
2022/07/30 08:15:57;;;;;;;8.20;6.38;;;18.70;99.90;;;;;;6083132;23;20030;-78
2022/07/30 08:18:43;;;;;;;5.10;4.65;;;18.80;99.90;;;;;;6124228;23;20018;-77
2022/07/30 08:21:18;;;;;;;4.03;3.30;;;18.90;99.90;;;;;;6100124;23;20018;-77
2022/07/30 08:23:46;;;;;;;6.90;4.43;;;19.10;99.90;;;;;;6094646;23;20474;-79
2022/07/30 08:26:14;;;;;;;6.18;5.38;;;19.30;99.90;;;;;;6096793;23;20652;-77
2022/07/30 08:28:48;;;;;;;12.73;5.55;;;19.40;99.90;;;;;;6089540;23;20033;-75
2022/07/30 08:31:24;;;;;;;5.70;4.82;;;19.50;99.90;;;;;;6095813;23;20022;-77
2022/07/30 08:33:52;;;;;;;6.15;4.40;;;19.50;99.90;;;;;;6099479;23;20018;-75
2022/07/30 08:36:19;;;;;;;8.80;4.80;;;19.70;99.90;;;;;;6091338;23;20529;-79
2022/07/30 08:38:53;;;;;;;8.27;5.22;;;19.80;99.90;;;;;;6097600;23;20037;-75
2022/07/30 08:41:21;;;;;;;6.55;5.05;;;19.70;99.90;;;;;;6100159;23;20013;-75
2022/07/30 08:43:52;;;;;;;13.65;5.25;;;19.80;99.90;;;;;;6093963;23;20030;-76
2022/07/30 08:46:23;;;;;;;3.83;3.53;;;20.00;99.90;;;;;;6099552;23;20528;-76
2022/07/30 08:48:57;;;;;;;9.48;5.05;;;19.90;99.90;;;;;;6087801;23;20033;-74
2022/07/30 08:51:35;;;;;;;7.57;5.05;;;20.10;99.90;;;;;;6093773;23;20026;-76
2022/07/30 08:54:21;;;;;;;6.30;5.80;;;20.00;99.90;;;;;;6094969;23;20453;-76
2022/07/30 08:56:49;;;;;;;5.55;5.05;;;19.80;99.90;;;;;;6118382;23;20041;-76
2022/07/30 08:59:17;;;;;;;6.10;5.63;;;19.90;99.90;;;;;;6097388;23;20026;-77
2022/07/30 09:01:50;;;;;;;11.13;5.65;;;20.30;99.90;;;;;;6101980;23;20450;-76
2022/07/30 09:04:18;;;;;;;5.43;4.88;;;20.10;99.90;;;;;;6119618;23;20040;-80
2022/07/30 09:06:46;;;;;;;9.35;5.28;;;20.10;99.90;;;;;;6095385;23;20022;-79
2022/07/30 09:09:15;;;;;;;5.35;4.90;;;20.30;99.90;;;;;;6101379;23;20018;-77
2022/07/30 09:11:43;;;;;;;4.53;4.15;;;20.20;99.90;;;;;;6122720;23;20029;-81
2022/07/30 09:14:13;;;;;;;6.43;5.35;;;20.00;99.90;;;;;;6128048;23;20014;-76
2022/07/30 09:16:43;;;;;;;6.78;6.15;;;19.90;99.90;;;;;;6091433;23;20030;-76
2022/07/30 09:19:20;;;;;;;5.65;5.15;;;20.10;99.90;;;;;;6097248;23;20022;-75
2022/07/30 09:21:56;;;;;;;4.72;4.32;;;20.30;99.90;;;;;;6101315;23;20014;-77
2022/07/30 09:24:42;;;;;;;5.70;5.30;;;20.40;99.90;;;;;;6087431;23;20623;-81
2022/07/30 09:27:10;;;;;;;10.65;6.63;;;20.60;99.90;;;;;;6124743;23;20026;-77
2022/07/30 09:29:58;;;;;;;9.40;4.18;;;20.40;99.90;;;;;;6128917;23;20014;-80
2022/07/30 09:32:53;;;;;;;4.55;3.97;;;20.20;99.90;;;;;;6120281;23;20026;-79
2022/07/30 09:35:42;;;;;;;4.13;3.78;;;20.30;99.90;;;;;;6094016;23;20073;-86
2022/07/30 09:38:11;;;;;;;3.67;3.38;;;20.50;99.90;;;;;;6130167;23;20013;-83
2022/07/30 09:40:57;;;;;;;6.68;4.28;;;20.70;99.90;;;;;;6055616;23;20026;-79
2022/07/30 09:44:05;;;;;;;9.73;4.50;;;20.90;99.90;;;;;;6035666;23;20027;-80
2022/07/30 09:46:46;;;;;;;6.13;4.57;;;20.60;99.90;;;;;;6043466;23;20018;-79
2022/07/30 09:49:22;;;;;;;3.58;3.38;;;20.80;99.90;;;;;;6044331;23;20023;-82
2022/07/30 09:51:51;;;;;;;9.83;4.77;;;21.20;99.90;;;;;;6036329;23;20038;-79
2022/07/30 09:54:47;;;;;;;6.55;4.03;;;20.90;99.90;;;;;;6042378;23;20023;-82
2022/07/30 09:57:23;;;;;;;9.23;3.63;;;21.10;99.90;;;;;;6068321;23;20475;-80
2022/07/30 10:00:22;;;;;;;5.07;3.13;;;21.10;99.90;;;;;;6035462;23;20035;-82
2022/07/30 10:03:24;;;;;;;6.20;4.35;;;21.50;99.90;;;;;;6033237;23;20594;-79
2022/07/30 10:06:40;;;;;;;6.45;3.58;;;21.50;99.90;;;;;;6024507;23;20031;-79
2022/07/30 10:09:41;;;;;;;9.40;4.00;;;21.20;99.90;;;;;;6047759;23;20034;-76
2022/07/30 10:12:13;;;;;;;3.45;3.15;;;21.10;99.90;;;;;;6065328;23;20022;-79
2022/07/30 10:14:46;;;;;;;6.35;4.05;;;21.00;99.90;;;;;;6100499;23;20026;-77
2022/07/30 10:17:17;;;;;;;12.25;3.75;;;21.10;99.90;;;;;;6101026;23;20018;-76
2022/07/30 10:20:19;;;;;;;5.15;3.70;;;21.40;99.90;;;;;;6117498;23;20026;-79
2022/07/30 10:23:19;;;;;;;4.07;3.75;;;21.60;99.90;;;;;;6090413;23;20069;-77
2022/07/30 10:26:12;;;;;;;3.75;3.38;;;21.40;99.90;;;;;;6129862;23;20017;-80
2022/07/30 10:29:20;;;;;;;7.22;4.60;;;21.50;99.90;;;;;;6038432;23;20072;-78
2022/07/30 10:32:01;;;;;;;4.03;3.72;;;21.30;99.90;;;;;;6111055;23;20036;-83
2022/07/30 10:34:31;;;;;;;18.52;4.07;;;21.00;99.90;;;;;;6092143;23;20450;-78
2022/07/30 10:37:04;;;;;;;6.68;3.05;;;21.30;99.90;;;;;;6126677;23;20018;-79
2022/07/30 10:39:38;;;;;;;2.85;2.65;;;21.50;99.90;;;;;;6096678;23;20026;-77
2022/07/30 10:42:05;;;;;;;4.13;3.83;;;21.50;99.90;;;;;;6127472;23;20018;-77
2022/07/30 10:44:58;;;;;;;4.90;2.92;;;21.50;99.90;;;;;;6117991;23;20032;-77
2022/07/30 10:47:27;;;;;;;5.70;3.47;;;21.90;99.90;;;;;;6123720;23;20026;-83
2022/07/30 10:50:11;;;;;;;2.80;2.53;;;22.10;99.90;;;;;;6103644;23;20014;-78
2022/07/30 10:52:51;;;;;;;2.83;2.58;;;22.30;99.90;;;;;;6118860;23;20804;-84
2022/07/30 10:55:35;;;;;;;5.97;2.17;;;22.50;99.90;;;;;;6125425;23;20025;-80
2022/07/30 10:58:11;;;;;;;;;;;22.20;99.90;;;;;;6091269;23;20022;-82
2022/07/30 11:00:42;;;;;;;1.95;1.85;;;22.10;99.90;;;;;;6120131;23;19921;-78
2022/07/30 11:03:18;;;;;;;6.43;2.88;;;21.90;99.90;;;;;;6125052;23;20029;-81
2022/07/30 11:06:14;;;;;;;2.47;2.28;;;21.90;99.90;;;;;;6128343;23;20018;-78
2022/07/30 11:08:44;;;;;;;3.63;2.63;;;22.20;99.90;;;;;;6116163;23;20342;-76
2022/07/30 11:11:20;;;;;;;3.20;2.65;;;21.90;99.90;;;;;;6122776;23;20033;-76
2022/07/30 11:14:08;;;;;;;3.20;2.45;;;22.10;99.90;;;;;;6126197;23;20018;-76
2022/07/30 11:16:39;;;;;;;3.25;2.95;;;22.40;99.90;;;;;;6116663;23;20072;-77
2022/07/30 11:19:15;;;;;;;1.83;1.73;;;22.60;99.90;;;;;;6123784;23;20052;-80
2022/07/30 11:22:40;;;;;;;2.50;2.30;;;22.30;99.90;;;;;;6126355;23;20014;-77
2022/07/30 11:25:28;;;;;;;1.70;1.60;;;21.90;99.90;;;;;;6120252;23;20033;-84
2022/07/30 11:28:37;;;;;;;2.90;1.75;;;22.20;99.90;;;;;;6097376;23;20528;-77
2022/07/30 11:31:32;;;;;;;3.55;2.03;;;22.50;99.90;;;;;;6124241;23;20354;-80
2022/07/30 11:34:19;;;;;;;4.65;2.15;;;22.60;99.90;;;;;;6127327;23;20041;-79
2022/07/30 11:37:09;;;;;;;3.10;1.83;;;22.60;99.90;;;;;;6116915;23;20036;-81
2022/07/30 11:39:57;;;;;;;4.25;2.17;;;22.70;99.90;;;;;;6119756;23;20040;-79
2022/07/30 11:42:34;;;;;;;2.00;1.83;;;23.00;99.90;;;;;;6126645;23;20018;-80
2022/07/30 11:45:17;;;;;;;3.08;1.60;;;22.80;99.90;;;;;;6126882;23;20022;-78
2022/07/30 11:47:46;;;;;;;8.13;2.38;;;22.40;99.90;;;;;;6122857;23;20672;-87
2022/07/30 11:50:18;;;;;;;3.70;1.73;;;22.70;99.90;;;;;;6129282;23;20014;-82
2022/07/30 11:52:58;;;;;;;2.67;2.00;;;22.70;99.90;;;;;;6116323;23;20030;-84
2022/07/30 11:55:35;;;;;;;3.22;2.55;;;22.80;99.80;;;;;;6120880;23;20026;-76
2022/07/30 11:58:05;;;;;;;6.47;2.35;;;22.70;99.90;;;;;;6125496;23;20021;-77
2022/07/30 12:00:41;;;;;;;7.28;2.30;;;22.40;99.90;;;;;;6117626;23;20485;-76
2022/07/30 12:03:16;;;;;;;8.07;1.73;;;22.40;99.90;;;;;;6122235;23;20871;-81
2022/07/30 12:05:45;;;;;;;5.22;2.63;;;22.70;99.70;;;;;;6125077;23;20018;-78
2022/07/30 12:08:19;;;;;;;7.72;2.17;;;22.90;99.90;;;;;;6115829;23;20030;-75
2022/07/30 12:11:02;;;;;;;2.28;2.08;;;23.10;99.90;;;;;;6124468;23;20350;-80
2022/07/30 12:13:31;;;;;;;1.77;1.67;;;23.40;99.90;;;;;;6127828;23;20025;-78
2022/07/30 12:16:17;;;;;;;2.00;1.80;;;23.30;99.90;;;;;;6119621;23;20022;-76
2022/07/30 12:18:47;;;;;;;5.38;2.17;;;23.30;99.90;;;;;;6126394;23;20026;-80
2022/07/30 12:21:15;;;;;;;5.53;3.47;;;23.30;99.40;;;;;;6127489;23;20014;-77
2022/07/30 12:23:52;;;;;;;2.75;2.53;;;23.00;99.70;;;;;;6121852;23;20021;-79
2022/07/30 12:26:23;;;;;;;3.20;1.60;;;22.50;99.80;;;;;;6128457;23;20447;-80
2022/07/30 12:28:55;;;;;;;3.67;2.88;;;22.40;97.10;;;;;;6117284;23;20033;-79
2022/07/30 12:31:23;;;;;;;1.48;1.38;;;22.30;98.80;;;;;;6125629;23;20349;-81
2022/07/30 12:33:51;;;;;;;5.63;2.85;;;22.40;98.90;;;;;;6128736;23;20060;-79
2022/07/30 12:36:29;;;;;;;2.15;1.92;;;22.50;99.80;;;;;;6122643;23;20468;-81
2022/07/30 12:38:59;;;;;;;7.10;2.42;;;22.40;99.70;;;;;;6127562;23;20555;-82
2022/07/30 12:41:47;;;;;;;1.85;1.52;;;22.50;99.00;;;;;;6131340;23;20014;-85
2022/07/30 12:44:40;;;;;;;1.90;1.80;;;22.30;98.90;;;;;;6120425;23;20357;-78
2022/07/30 12:47:19;;;;;;;2.75;1.60;;;22.10;99.60;;;;;;6126053;23;20022;-80
2022/07/30 12:49:47;;;;;;;4.15;2.58;;;22.20;99.90;;;;;;6128853;23;20014;-78
2022/07/30 12:52:24;;;;;;;2.90;1.83;;;22.40;99.60;;;;;;6120640;23;20026;-80
2022/07/30 12:55:01;;;;;;;2.17;1.67;;;22.70;98.40;;;;;;6128580;23;20026;-88
2022/07/30 12:57:52;;;;;;;2.33;2.13;;;22.80;98.10;;;;;;6132199;23;20020;-82
2022/07/30 13:00:45;;;;;;;3.47;2.95;;;22.50;98.70;;;;;;6097099;23;20026;-80
2022/07/30 13:03:22;;;;;;;3.60;1.67;;;22.50;99.00;;;;;;6127632;23;20465;-83
2022/07/30 13:05:52;;;;;;;3.83;1.92;;;22.50;97.60;;;;;;6129191;23;20014;-82
2022/07/30 13:08:47;;;;;;;3.72;1.55;;;22.50;97.80;;;;;;6092596;23;20034;-85
2022/07/30 13:11:17;;;;;;;6.30;2.13;;;22.50;97.10;;;;;;6124424;23;20022;-79
2022/07/30 13:13:46;;;;;;;1.88;1.77;;;22.90;97.80;;;;;;6129245;23;20021;-77
2022/07/30 13:16:14;;;;;;;2.47;1.88;;;23.20;96.00;;;;;;6120948;23;20022;-81
2022/07/30 13:18:41;;;;;;;3.22;1.55;;;23.30;95.30;;;;;;6117918;23;20017;-85
2022/07/30 13:21:10;;;;;;;2.45;1.33;;;23.30;96.10;;;;;;6129869;23;20018;-82
2022/07/30 13:23:39;;;;;;;5.72;1.75;;;23.30;95.40;;;;;;6123570;23;20454;-78
2022/07/30 13:26:08;;;;;;;5.05;1.73;;;23.50;94.70;;;;;;6129554;23;20017;-84
2022/07/30 13:28:36;;;;;;;1.92;1.60;;;23.60;93.50;;;;;;6119931;23;20025;-76
2022/07/30 13:31:07;;;;;;;2.65;1.70;;;23.70;94.80;;;;;;6125880;23;20022;-85